createdAt,value
2022-11-21T00:00:52.719Z,6.90
2022-11-21T00:03:20.099Z,6.80
2022-11-21T00:05:47.953Z,6.80
2022-11-21T00:08:16.245Z,6.70
2022-11-21T00:10:43.783Z,6.70
2022-11-21T00:13:15.143Z,6.70
2022-11-21T00:15:42.700Z,6.60
2022-11-21T00:18:11.698Z,6.60
2022-11-21T00:20:40.439Z,6.50
2022-11-21T00:23:07.662Z,6.50
2022-11-21T00:25:35.167Z,6.50
2022-11-21T00:28:02.404Z,6.40
2022-11-21T00:30:29.721Z,6.40
2022-11-21T00:32:58.425Z,6.50
2022-11-21T00:35:25.780Z,6.50
2022-11-21T00:37:53.056Z,6.50
2022-11-21T00:40:20.316Z,6.60
2022-11-21T00:42:47.527Z,6.70
2022-11-21T00:45:18.362Z,6.70
2022-11-21T00:47:48.420Z,6.80
2022-11-21T00:50:15.663Z,6.90
2022-11-21T00:52:42.797Z,6.90
2022-11-21T00:55:10.128Z,6.90
2022-11-21T00:57:37.485Z,6.90
2022-11-21T01:00:05.255Z,6.90
2022-11-21T01:02:32.533Z,6.90
2022-11-21T01:04:59.851Z,6.90
2022-11-21T01:07:27.098Z,7.00
2022-11-21T01:09:54.306Z,7.00
2022-11-21T01:12:21.523Z,6.90
2022-11-21T01:14:48.845Z,6.80
2022-11-21T01:17:16.214Z,6.80
2022-11-21T01:19:44.922Z,6.70
2022-11-21T01:22:12.107Z,6.60
2022-11-21T01:24:39.281Z,6.50
2022-11-21T01:27:06.484Z,6.40
2022-11-21T01:29:33.646Z,6.40
2022-11-21T01:32:00.935Z,6.30
2022-11-21T01:34:28.327Z,6.20
2022-11-21T01:36:55.679Z,6.10
2022-11-21T01:39:22.907Z,6.00
2022-11-21T01:41:50.168Z,6.00
2022-11-21T01:44:21.530Z,5.90
2022-11-21T01:46:49.241Z,5.90
2022-11-21T01:49:25.030Z,6.00
2022-11-21T01:52:07.631Z,6.00
2022-11-21T01:54:40.700Z,6.00
2022-11-21T01:57:20.367Z,6.00
2022-11-21T02:00:01.793Z,6.00
2022-11-21T02:02:30.647Z,6.00
2022-11-21T02:04:59.576Z,6.00
2022-11-21T02:07:28.219Z,6.10
2022-11-21T02:09:57.505Z,6.00
2022-11-21T02:12:43.560Z,5.90
2022-11-21T02:15:11.131Z,5.90
2022-11-21T02:17:38.489Z,5.90
2022-11-21T02:20:07.174Z,5.80
2022-11-21T02:22:52.864Z,5.80
2022-11-21T02:25:21.911Z,5.80
2022-11-21T02:27:49.697Z,5.70
2022-11-21T02:30:17.645Z,5.70
2022-11-21T02:32:48.738Z,5.60
2022-11-21T02:35:16.877Z,5.70
2022-11-21T02:38:10.325Z,5.80
2022-11-21T02:40:39.778Z,5.80
2022-11-21T02:43:14.516Z,5.90
2022-11-21T02:45:43.060Z,5.80
2022-11-21T02:48:10.510Z,5.80
2022-11-21T02:50:38.838Z,5.80
2022-11-21T02:53:06.608Z,5.80
2022-11-21T02:55:33.806Z,5.70
2022-11-21T02:58:04.891Z,5.80
2022-11-21T03:00:32.887Z,5.70
2022-11-21T03:03:00.036Z,5.60
2022-11-21T03:05:27.445Z,5.50
2022-11-21T03:07:54.668Z,5.50
2022-11-21T03:10:21.829Z,5.50
2022-11-21T03:12:49.052Z,5.60
2022-11-21T03:15:16.509Z,5.60
2022-11-21T03:17:43.708Z,5.50
2022-11-21T03:20:11.202Z,5.60
2022-11-21T03:22:38.395Z,5.60
2022-11-21T03:25:05.723Z,5.50
2022-11-21T03:27:32.842Z,5.50
2022-11-21T03:30:00.044Z,5.50
2022-11-21T03:32:27.254Z,5.50
2022-11-21T03:34:54.421Z,5.60
2022-11-21T03:37:21.641Z,5.50
2022-11-21T03:39:48.858Z,5.60
2022-11-21T03:42:15.999Z,5.60
2022-11-21T03:44:43.228Z,5.60
2022-11-21T03:47:10.472Z,5.60
2022-11-21T03:49:37.648Z,5.60
2022-11-21T03:52:04.820Z,5.60
2022-11-21T03:54:32.037Z,5.60
2022-11-21T03:56:59.199Z,5.60
2022-11-21T03:59:26.404Z,5.50
2022-11-21T04:01:53.640Z,5.60
2022-11-21T04:04:20.861Z,5.60
2022-11-21T04:06:48.116Z,5.60
2022-11-21T04:09:15.327Z,5.50
2022-11-21T04:11:42.502Z,5.40
2022-11-21T04:14:09.657Z,5.30
2022-11-21T04:16:36.847Z,5.30
2022-11-21T04:19:04.010Z,5.30
2022-11-21T04:21:31.189Z,5.20
2022-11-21T04:23:58.377Z,5.20
2022-11-21T04:26:25.578Z,5.30
2022-11-21T04:28:52.763Z,5.20
2022-11-21T04:31:19.937Z,5.10
2022-11-21T04:33:47.136Z,5.10
2022-11-21T04:36:14.391Z,5.10
2022-11-21T04:38:41.589Z,5.00
2022-11-21T04:41:08.810Z,5.00
2022-11-21T04:43:36.603Z,5.00
2022-11-21T04:46:03.837Z,5.00
2022-11-21T04:48:32.596Z,4.90
2022-11-21T04:50:59.874Z,4.90
2022-11-21T04:53:27.089Z,4.90
2022-11-21T04:55:54.276Z,4.90
2022-11-21T04:58:21.481Z,4.80
2022-11-21T05:00:48.734Z,4.80
2022-11-21T05:03:15.981Z,4.80
2022-11-21T05:05:43.232Z,4.70
2022-11-21T05:08:10.422Z,4.70
2022-11-21T05:10:57.572Z,4.60
2022-11-21T05:13:24.912Z,4.80
2022-11-21T05:16:01.196Z,4.80
2022-11-21T05:18:28.530Z,4.80
2022-11-21T05:20:55.764Z,4.80
2022-11-21T05:23:23.158Z,4.80
2022-11-21T05:25:50.376Z,4.80
2022-11-21T05:28:17.532Z,4.80
2022-11-21T05:30:44.680Z,4.70
2022-11-21T05:33:11.821Z,4.70
2022-11-21T05:35:43.182Z,4.70
2022-11-21T05:38:11.226Z,4.70
2022-11-21T05:40:38.442Z,4.70
2022-11-21T05:43:24.207Z,4.70
2022-11-21T05:45:51.465Z,4.70
2022-11-21T05:48:18.646Z,4.80
2022-11-21T05:50:52.159Z,4.80
2022-11-21T05:53:19.600Z,4.70
2022-11-21T05:55:47.030Z,4.80
2022-11-21T05:58:14.534Z,4.80
2022-11-21T06:00:41.719Z,4.80
2022-11-21T06:03:28.474Z,4.80
2022-11-21T06:06:11.873Z,4.80
2022-11-21T06:08:40.463Z,4.80
2022-11-21T06:11:08.684Z,4.80
2022-11-21T06:13:36.575Z,4.70
2022-11-21T06:16:06.110Z,4.60
2022-11-21T06:18:34.315Z,4.60
2022-11-21T06:21:21.776Z,4.70
2022-11-21T06:23:52.543Z,4.70
2022-11-21T06:26:21.016Z,4.80
2022-11-21T06:28:48.717Z,4.90
2022-11-21T06:31:16.928Z,4.90
2022-11-21T06:33:44.502Z,4.90
2022-11-21T06:36:15.579Z,5.00
2022-11-21T06:38:43.503Z,5.10
2022-11-21T06:41:12.259Z,5.00
2022-11-21T06:43:39.636Z,5.10
2022-11-21T06:46:07.155Z,5.10
2022-11-21T06:48:34.984Z,5.10
2022-11-21T06:51:19.213Z,5.10
2022-11-21T06:53:46.754Z,5.20
2022-11-21T06:56:15.089Z,5.30
2022-11-21T06:58:42.329Z,5.30
2022-11-21T07:01:10.726Z,5.50
2022-11-21T07:03:38.019Z,5.50
2022-11-21T07:06:06.009Z,5.70
2022-11-21T07:08:35.981Z,5.80
2022-11-21T07:11:24.448Z,6.00
2022-11-21T07:13:52.581Z,6.30
2022-11-21T07:16:20.329Z,6.80
2022-11-21T07:18:47.563Z,7.00
2022-11-21T07:21:14.882Z,7.30
2022-11-21T07:23:42.170Z,7.90
2022-11-21T07:26:10.290Z,8.40
2022-11-21T07:28:38.531Z,8.80
2022-11-21T07:31:11.748Z,9.40
2022-11-21T07:33:40.675Z,9.70
2022-11-21T07:36:09.536Z,9.90
2022-11-21T07:38:36.735Z,9.80
2022-11-21T07:41:04.038Z,9.50
2022-11-21T07:43:31.240Z,9.40
2022-11-21T07:45:58.412Z,9.40
2022-11-21T07:48:25.661Z,9.60
2022-11-21T07:50:52.837Z,9.50
2022-11-21T07:53:20.020Z,9.20
2022-11-21T07:55:47.242Z,8.90
2022-11-21T07:58:15.641Z,8.60
2022-11-21T08:00:43.159Z,8.30
2022-11-21T08:03:12.151Z,8.00
2022-11-21T08:05:43.395Z,7.70
2022-11-21T08:08:11.355Z,7.50
2022-11-21T08:10:39.553Z,7.30
2022-11-21T08:13:06.896Z,7.30
2022-11-21T08:15:34.104Z,7.30
2022-11-21T08:18:14.543Z,7.30
2022-11-21T08:20:42.713Z,7.30
2022-11-21T08:23:10.874Z,7.20
2022-11-21T08:25:38.736Z,7.10
2022-11-21T08:28:06.623Z,7.10
2022-11-21T08:30:35.427Z,7.00
2022-11-21T08:33:03.418Z,7.00
2022-11-21T08:35:30.622Z,7.00
2022-11-21T08:37:58.529Z,7.10
2022-11-21T08:40:27.247Z,7.20
2022-11-21T08:43:02.211Z,7.30
2022-11-21T08:45:29.703Z,7.50
2022-11-21T08:47:57.098Z,7.50
2022-11-21T08:50:24.642Z,7.60
2022-11-21T08:52:52.088Z,7.60
2022-11-21T08:55:20.590Z,7.80
2022-11-21T08:57:47.785Z,7.90
2022-11-21T09:00:15.279Z,7.90
2022-11-21T09:02:42.577Z,7.80
2022-11-21T09:05:09.865Z,7.80
2022-11-21T09:07:37.281Z,8.00
2022-11-21T09:10:04.868Z,8.20
2022-11-21T09:12:32.033Z,8.60
2022-11-21T09:15:17.567Z,8.80
2022-11-21T09:18:03.150Z,8.90
2022-11-21T09:20:34.592Z,9.00
2022-11-21T09:23:05.633Z,9.10
2022-11-21T09:25:33.072Z,9.10
2022-11-21T09:28:01.227Z,9.40
2022-11-21T09:30:28.558Z,9.70
2022-11-21T09:33:05.576Z,10.00
2022-11-21T09:35:33.244Z,10.20
2022-11-21T09:38:00.709Z,10.40
2022-11-21T09:40:30.681Z,11.40
2022-11-21T09:42:57.919Z,12.70
2022-11-21T09:45:34.728Z,14.10
2022-11-21T09:48:09.897Z,15.30
2022-11-21T09:50:53.562Z,16.70
2022-11-21T09:53:24.061Z,17.50
2022-11-21T09:55:54.193Z,18.00
2022-11-21T09:58:27.497Z,17.80
2022-11-21T10:00:55.060Z,17.60
2022-11-21T10:03:24.297Z,17.40
2022-11-21T10:05:54.540Z,17.60
2022-11-21T10:08:42.647Z,17.40
2022-11-21T10:11:23.748Z,16.30
2022-11-21T10:13:50.961Z,14.80
2022-11-21T10:16:29.402Z,13.40
2022-11-21T10:18:59.281Z,12.60
2022-11-21T10:21:33.497Z,12.20
2022-11-21T10:24:08.988Z,11.70
2022-11-21T10:26:41.611Z,11.50
2022-11-21T10:29:41.846Z,11.40
2022-11-21T10:32:14.041Z,11.10
2022-11-21T10:34:41.347Z,10.80
2022-11-21T10:37:15.708Z,10.40
2022-11-21T10:39:47.168Z,10.10
2022-11-21T10:42:23.153Z,10.00
2022-11-21T10:45:11.016Z,9.80
2022-11-21T10:47:38.995Z,9.90
2022-11-21T10:50:08.885Z,9.80
2022-11-21T10:52:39.971Z,9.70
2022-11-21T10:55:08.730Z,9.30
2022-11-21T10:57:55.089Z,9.20
2022-11-21T11:00:24.067Z,9.10
2022-11-21T11:03:02.058Z,9.00
2022-11-21T11:05:29.785Z,9.20
2022-11-21T11:08:04.766Z,9.10
2022-11-21T11:10:33.187Z,9.20
2022-11-21T11:16:12.256Z,9.30
2022-11-21T11:18:41.539Z,9.30
2022-11-21T11:21:16.651Z,9.40
2022-11-21T11:23:44.542Z,9.30
2022-11-21T11:26:19.810Z,8.90
2022-11-21T11:28:47.902Z,8.80
2022-11-21T11:31:15.610Z,8.90
2022-11-21T11:33:49.120Z,8.90
2022-11-21T11:36:29.098Z,9.00
2022-11-21T11:38:57.644Z,8.80
2022-11-21T11:41:27.940Z,8.60
2022-11-21T11:44:22.095Z,8.50
2022-11-21T11:47:14.940Z,8.60
2022-11-21T11:50:13.033Z,8.70
2022-11-21T11:52:40.192Z,8.90
2022-11-21T11:55:08.609Z,8.90
2022-11-21T11:57:37.309Z,8.80
2022-11-21T12:00:15.991Z,9.00
2022-11-21T12:02:55.460Z,8.90
2022-11-21T12:05:26.238Z,8.90
2022-11-21T12:11:24.729Z,8.90
2022-11-21T12:13:54.517Z,8.90
2022-11-21T12:16:23.613Z,9.00
2022-11-21T12:19:05.496Z,9.10
2022-11-21T12:21:32.716Z,9.00
2022-11-21T12:24:03.095Z,9.00
2022-11-21T12:26:51.444Z,8.90
2022-11-21T12:29:27.916Z,8.80
2022-11-21T12:32:07.433Z,8.70
2022-11-21T12:34:43.519Z,8.80
2022-11-21T12:37:16.590Z,8.80
2022-11-21T12:40:00.621Z,8.80
2022-11-21T12:42:47.161Z,8.70
2022-11-21T12:45:20.256Z,8.50
2022-11-21T12:48:05.945Z,8.60
2022-11-21T12:51:00.065Z,8.60
2022-11-21T12:53:51.483Z,8.70
2022-11-21T12:56:23.215Z,8.70
2022-11-21T12:58:52.400Z,8.90
2022-11-21T13:01:31.820Z,8.90
2022-11-21T13:04:05.511Z,8.90
2022-11-21T13:06:34.356Z,9.00
2022-11-21T13:09:03.002Z,8.90
2022-11-21T13:11:56.807Z,8.90
2022-11-21T13:14:29.600Z,8.90
2022-11-21T13:17:06.946Z,8.90
2022-11-21T13:19:53.011Z,8.90
2022-11-21T13:22:52.565Z,9.10
2022-11-21T13:25:31.685Z,9.10
2022-11-21T13:28:14.147Z,9.30
2022-11-21T13:30:51.392Z,9.40
2022-11-21T13:33:39.624Z,9.50
2022-11-21T13:36:27.205Z,9.60
2022-11-21T13:38:54.500Z,9.60
2022-11-21T13:41:52.679Z,9.40
2022-11-21T13:44:28.903Z,9.30
2022-11-21T13:47:03.300Z,9.30
2022-11-21T13:49:33.425Z,9.20
2022-11-21T13:52:06.061Z,9.00
2022-11-21T13:54:39.047Z,8.80
2022-11-21T13:57:15.028Z,8.60
2022-11-21T14:00:02.902Z,8.40
2022-11-21T14:02:32.149Z,8.20
2022-11-21T14:05:19.770Z,8.10
2022-11-21T14:07:47.917Z,8.00
2022-11-21T14:10:25.375Z,7.90
2022-11-21T14:12:53.828Z,8.00
2022-11-21T14:15:27.700Z,8.10
2022-11-21T14:17:58.911Z,8.00
2022-11-21T14:20:27.996Z,8.10
2022-11-21T14:22:58.262Z,8.20
2022-11-21T14:25:40.712Z,8.30
2022-11-21T14:28:14.351Z,8.30
2022-11-21T14:30:42.835Z,8.30
2022-11-21T14:33:23.413Z,8.20
2022-11-21T14:36:03.229Z,8.20
2022-11-21T14:38:32.923Z,8.20
2022-11-21T14:41:19.117Z,8.20
2022-11-21T14:43:47.102Z,8.20
2022-11-21T14:46:15.403Z,8.20
2022-11-21T14:48:42.879Z,8.20
2022-11-21T14:51:11.558Z,8.20
2022-11-21T14:53:42.548Z,8.20
2022-11-21T14:56:33.076Z,8.20
2022-11-21T14:59:02.464Z,8.10
2022-11-21T15:01:30.514Z,8.00
2022-11-21T15:03:59.408Z,8.10
2022-11-21T15:06:27.179Z,8.10
2022-11-21T15:11:48.119Z,8.00
2022-11-21T15:14:21.105Z,8.00
2022-11-21T15:16:50.107Z,7.90
2022-11-21T15:19:21.560Z,8.00
2022-11-21T15:21:49.203Z,7.90
2022-11-21T15:24:29.023Z,7.90
2022-11-21T15:26:56.397Z,7.80
2022-11-21T15:29:23.595Z,7.80
2022-11-21T15:32:15.694Z,7.80
2022-11-21T15:34:43.745Z,7.80
2022-11-21T15:37:17.670Z,7.70
2022-11-21T15:39:45.772Z,7.70
2022-11-21T15:42:31.459Z,7.80
2022-11-21T15:45:02.329Z,7.70
2022-11-21T15:47:29.646Z,7.60
2022-11-21T15:49:56.952Z,7.60
2022-11-21T15:52:24.214Z,7.50
2022-11-21T15:54:51.393Z,7.50
2022-11-21T15:59:51.100Z,7.60
2022-11-21T16:02:18.282Z,7.60
2022-11-21T16:04:45.607Z,7.60
2022-11-21T16:07:12.900Z,7.50
2022-11-21T16:09:42.077Z,7.60
2022-11-21T16:12:09.514Z,7.70
2022-11-21T16:14:36.703Z,7.70
2022-11-21T16:17:03.929Z,7.80
2022-11-21T16:19:31.337Z,7.80
2022-11-21T16:21:58.853Z,7.70
2022-11-21T16:24:26.110Z,7.70
2022-11-21T16:26:55.316Z,7.70
2022-11-21T16:29:22.564Z,7.80
2022-11-21T16:31:50.333Z,7.80
2022-11-21T16:34:20.826Z,7.90
2022-11-21T16:36:48.124Z,7.90
2022-11-21T16:39:18.176Z,7.80
2022-11-21T16:41:46.681Z,7.90
2022-11-21T16:44:14.515Z,7.90
2022-11-21T16:46:43.043Z,8.00
2022-11-21T16:49:10.378Z,8.10
2022-11-21T16:51:37.881Z,8.20
2022-11-21T16:54:08.858Z,8.20
2022-11-21T16:56:36.546Z,8.30
2022-11-21T16:59:03.715Z,8.30
2022-11-21T17:01:31.151Z,8.30
2022-11-21T17:03:58.654Z,8.30
2022-11-21T17:06:28.459Z,8.30
2022-11-21T17:08:55.909Z,8.30
2022-11-21T17:11:29.007Z,8.50
2022-11-21T17:13:57.055Z,8.60
2022-11-21T17:16:24.380Z,8.70
2022-11-21T17:18:55.293Z,8.70
2022-11-21T17:21:22.591Z,8.70
2022-11-21T17:23:50.356Z,8.80
2022-11-21T17:26:19.373Z,8.90
2022-11-21T17:28:56.998Z,8.90
2022-11-21T17:31:24.299Z,8.90
2022-11-21T17:33:51.950Z,8.90
2022-11-21T17:36:20.678Z,8.90
2022-11-21T17:38:48.131Z,9.00
2022-11-21T17:41:16.707Z,9.00
2022-11-21T17:43:44.193Z,9.00
2022-11-21T17:46:14.036Z,9.00
2022-11-21T17:48:41.253Z,9.10
2022-11-21T17:51:10.703Z,9.10
2022-11-21T17:53:39.523Z,9.10
2022-11-21T17:56:07.536Z,9.10
2022-11-21T17:58:34.857Z,9.10
2022-11-21T18:01:03.353Z,9.10
2022-11-21T18:03:31.036Z,9.20
2022-11-21T18:06:05.503Z,9.20
2022-11-21T18:08:33.503Z,9.20
2022-11-21T18:11:00.880Z,9.20
2022-11-21T18:13:28.704Z,9.20
2022-11-21T18:15:56.539Z,9.20
2022-11-21T18:18:23.766Z,9.20
2022-11-21T18:20:51.392Z,9.10
2022-11-21T18:23:18.632Z,9.10
2022-11-21T18:25:47.006Z,9.10
2022-11-21T18:28:14.244Z,9.10
2022-11-21T18:30:41.404Z,9.10
2022-11-21T18:33:08.587Z,9.10
2022-11-21T18:35:36.076Z,9.10
2022-11-21T18:38:03.358Z,9.10
2022-11-21T18:40:30.660Z,9.10
2022-11-21T18:42:57.878Z,9.20
2022-11-21T18:45:25.164Z,9.10
2022-11-21T18:47:52.944Z,9.20
2022-11-21T18:50:20.184Z,9.10
2022-11-21T18:52:47.322Z,9.20
2022-11-21T18:55:14.497Z,9.20
2022-11-21T18:57:41.664Z,9.20
2022-11-21T19:00:09.232Z,9.20
2022-11-21T19:02:36.412Z,9.20
2022-11-21T19:05:03.704Z,9.30
2022-11-21T19:07:30.967Z,9.30
2022-11-21T19:10:14.697Z,9.40
2022-11-21T19:12:45.372Z,9.40
2022-11-21T19:15:15.140Z,9.40
2022-11-21T19:17:42.457Z,9.40
2022-11-21T19:20:09.991Z,9.40
2022-11-21T19:22:37.195Z,9.40
2022-11-21T19:25:04.501Z,9.40
2022-11-21T19:27:31.653Z,9.40
2022-11-21T19:29:58.901Z,9.40
2022-11-21T19:32:26.125Z,9.40
2022-11-21T19:34:53.285Z,9.50
2022-11-21T19:37:20.475Z,9.50
2022-11-21T19:39:47.721Z,9.50
2022-11-21T19:42:14.924Z,9.50
2022-11-21T19:44:42.102Z,9.50
2022-11-21T19:47:10.605Z,9.50
2022-11-21T19:49:37.865Z,9.50
2022-11-21T19:52:05.048Z,9.50
2022-11-21T19:54:32.343Z,9.50
2022-11-21T19:56:59.527Z,9.50
2022-11-21T19:59:27.497Z,9.50
2022-11-21T20:01:55.030Z,9.50
2022-11-21T20:04:22.253Z,9.50
2022-11-21T20:06:49.520Z,9.50
2022-11-21T20:09:17.450Z,9.50
2022-11-21T20:11:46.010Z,9.50
2022-11-21T20:14:19.696Z,9.50
2022-11-21T20:16:49.349Z,9.50
2022-11-21T20:19:17.471Z,9.50
2022-11-21T20:21:44.868Z,9.50
2022-11-21T20:24:12.723Z,9.50
2022-11-21T20:26:40.063Z,9.50
2022-11-21T20:29:07.526Z,9.50
2022-11-21T20:31:37.191Z,9.60
2022-11-21T20:34:07.769Z,9.60
2022-11-21T20:36:36.631Z,9.60
2022-11-21T20:39:05.130Z,9.70
2022-11-21T20:41:34.213Z,9.70
2022-11-21T20:44:53.263Z,9.70
2022-11-21T20:46:49.934Z,9.70
2022-11-21T20:49:17.565Z,9.60
2022-11-21T20:54:32.366Z,9.60
2022-11-21T20:56:59.707Z,9.60
2022-11-21T20:59:27.537Z,9.50
2022-11-21T21:01:55.151Z,9.40
2022-11-21T21:04:22.465Z,9.20
2022-11-21T21:06:49.712Z,9.20
2022-11-21T21:09:16.874Z,9.20
2022-11-21T21:11:52.971Z,9.10
2022-11-21T21:14:21.560Z,9.00
2022-11-21T21:16:49.212Z,9.00
2022-11-21T21:19:16.384Z,8.90
2022-11-21T21:21:43.581Z,8.80
2022-11-21T21:24:11.480Z,8.80
2022-11-21T21:26:42.670Z,8.70
2022-11-21T21:29:14.753Z,8.70
2022-11-21T21:31:49.615Z,8.70
2022-11-21T21:34:17.870Z,8.70
2022-11-21T21:36:45.163Z,8.60
2022-11-21T21:39:12.611Z,8.60
2022-11-21T21:41:41.811Z,8.50
2022-11-21T21:44:08.959Z,8.60
2022-11-21T21:46:36.116Z,8.50
2022-11-21T21:49:03.337Z,8.50
2022-11-21T21:51:31.067Z,8.50
2022-11-21T21:53:59.202Z,8.40
2022-11-21T21:56:27.482Z,8.40
2022-11-21T21:58:55.993Z,8.50
2022-11-21T22:01:27.652Z,8.50
2022-11-21T22:03:56.092Z,8.50
2022-11-21T22:06:23.484Z,8.40
2022-11-21T22:08:51.271Z,8.40
2022-11-21T22:11:22.226Z,8.40
2022-11-21T22:13:56.887Z,8.40
2022-11-21T22:16:24.404Z,8.40
2022-11-21T22:18:51.915Z,8.30
2022-11-21T22:21:20.394Z,8.30
2022-11-21T22:24:09.861Z,8.30
2022-11-21T22:26:35.026Z,8.30
2022-11-21T22:29:02.270Z,8.30
2022-11-21T22:31:30.143Z,8.40
2022-11-21T22:33:58.225Z,8.40
2022-11-21T22:36:25.530Z,8.40
2022-11-21T22:38:53.815Z,8.50
2022-11-21T22:41:22.094Z,8.50
2022-11-21T22:43:50.404Z,8.50
2022-11-21T22:46:17.687Z,8.50
2022-11-21T22:48:44.916Z,8.50
2022-11-21T22:51:13.181Z,8.50
2022-11-21T22:53:40.673Z,8.50
2022-11-21T22:56:09.791Z,8.50
2022-11-21T22:58:38.760Z,8.50
2022-11-21T23:01:10.299Z,8.50
2022-11-21T23:03:38.038Z,8.50
2022-11-21T23:06:06.192Z,8.50
2022-11-21T23:08:33.844Z,8.60
2022-11-21T23:11:08.356Z,8.60
2022-11-21T23:13:36.689Z,8.60
2022-11-21T23:16:05.019Z,8.60
2022-11-21T23:18:33.450Z,8.60
2022-11-21T23:21:01.168Z,8.60
2022-11-21T23:23:28.315Z,8.60
2022-11-21T23:25:55.460Z,8.50
2022-11-21T23:28:22.706Z,8.50
2022-11-21T23:30:50.415Z,8.50
2022-11-21T23:33:17.579Z,8.50
2022-11-21T23:35:45.436Z,8.60
2022-11-21T23:38:13.165Z,8.60
2022-11-21T23:40:40.475Z,8.60
2022-11-21T23:43:07.716Z,8.60
2022-11-21T23:45:35.000Z,8.50
2022-11-21T23:48:02.176Z,8.50
2022-11-21T23:50:29.412Z,8.50
2022-11-21T23:52:57.400Z,8.50
2022-11-21T23:55:24.578Z,8.50
2022-11-21T23:57:51.765Z,8.60
